Latest Weather Observations for Blackall

IDQ60801

Issued at 6:32 pm EST Saturday 30 May 2015 (issued every 30 minutes, with the page automatically refreshed every 10 minutes)

About weather observations | Map of weather stations | Latest weather observations for QLD | Other Formats
Station Details ID: 036034 Name: BLACKALL AIRPORT Lat: -24.43 Lon: 145.43 Height: 281.3 m
Data from the previous 72 hours. | See also: Recent months at Blackall
Date/Time
EST
Temp
°C
App
Temp
°C
Dew
Point
Rel
Hum
%
Delta-T
°C
Wind Press
QNH
hPa
Press
MSL
hPa
Rain
since 9 am
mm
Dir
 
Spd
km/h
Gust
km/h
Spd
kts
Gust
kts
30/06:30pm 23.7 23.9 10.4 43 7.4 CALM 0 0 0 0 1017.7 1017.0 0.0
30/06:00pm 25.8 24.4 10.8 39 8.5 NNE 9 9 5 5 1017.3 1016.6 0.0
30/05:30pm 26.8 25.4 10.9 37 9.1 NNW 9 13 5 7 1017.2 1016.5 0.0
30/05:00pm 27.8 25.6 10.9 35 9.7 N 13 19 7 10 1017.1 1016.4 0.0
30/04:30pm 28.1 26.3 10.8 34 9.9 N 11 17 6 9 1017.1 1016.4 0.0
30/04:00pm 28.3 25.8 9.6 31 10.5 N 13 19 7 10 1017.2 1016.5 0.0
30/03:30pm 29.1 27.4 11.2 33 10.4 N 11 24 6 13 1017.2 1016.5 0.0
30/03:00pm 28.9 26.6 10.6 32 10.5 N 13 22 7 12 1017.3 1016.6 0.0
30/02:30pm 28.5 26.4 11.1 34 10.1 NNE 13 24 7 13 1017.4 1016.7 0.0
30/02:00pm 28.2 25.7 10.9 34 9.9 N 15 24 8 13 1018.0 1017.2 0.0
30/01:30pm 27.9 25.8 11.0 35 9.7 NNE 13 24 7 13 1018.4 1017.6 0.0
30/01:00pm 27.7 24.9 11.3 36 9.5 NNE 17 24 9 13 1019.2 1018.5 0.0
30/12:30pm 27.6 25.2 12.8 40 8.8 N 17 26 9 14 1019.8 1019.1 0.0
30/12:00pm 27.1 25.1 12.7 41 8.5 N 15 20 8 11 1020.5 1019.8 0.0
30/11:30am 26.5 24.2 12.9 43 8.0 NNE 17 24 9 13 1021.2 1020.5 0.0
30/11:00am 25.8 23.2 13.3 46 7.4 N 19 30 10 16 1022.0 1021.3 0.0
30/10:30am 25.1 22.6 13.6 49 6.8 NNE 19 26 10 14 1022.3 1021.6 0.0
30/10:00am 25.0 22.8 14.5 52 6.3 NNE 19 28 10 15 1022.8 1022.1 0.0
30/09:00am 21.9 19.9 14.0 61 4.6 NNE 17 24 9 13 1022.7 1022.0 0.0
30/08:00am 17.8 16.0 12.0 69 3.2 NE 13 17 7 9 1022.1 1021.4 0.0
30/07:30am 16.8 15.6 11.7 72 2.8 ENE 9 11 5 6 1022.0 1021.3 0.0
30/07:00am 15.8 14.5 11.4 75 2.4 ENE 9 13 5 7 1021.8 1021.1 0.0
30/06:30am 15.5 13.7 10.9 74 2.5 ENE 11 13 6 7 1021.7 1021.0 0.0
30/06:00am 15.9 14.6 11.3 74 2.5 E 9 13 5 7 1021.4 1020.7 0.0
30/05:30am 15.4 13.9 10.6 73 2.6 E 9 11 5 6 1021.2 1020.5 0.0
30/05:00am 16.3 14.9 10.8 70 3.0 E 9 13 5 7 1020.9 1020.2 0.0
30/04:30am 16.4 14.6 10.7 69 3.1 ENE 11 13 6 7 1020.6 1019.9 0.0
30/04:00am 16.8 15.0 10.9 68 3.2 NE 11 13 6 7 1020.6 1019.9 0.0
30/03:30am 16.8 15.1 11.3 70 3.0 ENE 11 15 6 8 1020.9 1020.2 0.0
30/03:00am 15.6 14.3 9.9 69 3.0 ENE 7 9 4 5 1020.8 1020.1 0.0
30/02:30am 16.1 15.0 10.6 70 3.0 ENE 7 9 4 5 1020.8 1020.1 0.0
30/02:00am 16.2 16.1 9.6 65 3.5 CALM 0 0 0 0 1020.8 1020.1 0.0
30/01:30am 17.2 15.9 9.9 62 3.9 ESE 7 9 4 5 1020.8 1020.1 0.0
30/01:00am 18.1 16.6 10.7 62 4.0 E 9 13 5 7 1020.8 1020.1 0.0
30/12:30am 18.5 17.4 10.8 61 4.2 E 7 9 4 5 1020.8 1020.1 0.0
30/12:00am 19.1 17.6 10.4 57 4.7 NE 9 11 5 6 1021.0 1020.3 0.0
 
Date/Time
EST
Temp
°C
App
Temp
°C
Dew
Point
Rel
Hum
%
Delta-T
°C
Wind Press
QNH
hPa
Press
MSL
hPa
Rain
since 9 am
mm
Dir
 
Spd
km/h
Gust
km/h
Spd
kts
Gust
kts
29/11:30pm 19.8 18.3 10.5 55 5.1 ENE 9 11 5 6 1021.2 1020.5 0.0
29/11:00pm 20.5 18.2 10.6 53 5.4 ENE 13 17 7 9 1021.5 1020.8 0.0
29/10:30pm 21.2 18.9 10.4 50 6.0 ENE 13 19 7 10 1021.5 1020.8 0.0
29/10:00pm 21.5 18.7 10.0 48 6.3 ENE 15 20 8 11 1021.5 1020.8 0.0
29/09:30pm 21.6 18.7 9.5 46 6.6 ENE 15 19 8 10 1021.5 1020.8 0.0
29/09:00pm 21.5 19.3 9.4 46 6.5 ENE 11 13 6 7 1021.7 1021.0 0.0
29/08:30pm 21.1 18.9 9.4 47 6.3 E 11 13 6 7 1021.4 1020.7 0.0
29/08:00pm 20.4 18.6 9.3 49 6.0 E 9 13 5 7 1021.1 1020.4 0.0
29/07:30pm 21.2 19.4 9.4 47 6.4 ESE 9 11 5 6 1020.9 1020.2 0.0
29/07:00pm 21.1 19.5 8.7 45 6.6 SE 7 9 4 5 1020.4 1019.7 0.0
29/06:30pm 22.9 22.7 9.0 41 7.5 CALM 0 0 0 0 1020.1 1019.4 0.0
29/06:00pm 24.6 24.3 8.5 36 8.7 CALM 0 0 0 0 1019.8 1019.1 0.0
29/05:30pm 27.1 25.6 9.0 32 10.0 E 7 11 4 6 1019.6 1018.9 0.0
29/05:00pm 28.0 25.6 8.8 30 10.6 E 11 15 6 8 1019.4 1018.7 0.0
29/04:30pm 28.4 26.5 9.2 30 10.8 NE 9 13 5 7 1019.3 1018.6 0.0
29/04:00pm 28.4 26.5 9.2 30 10.7 ESE 9 19 5 10 1019.2 1018.5 0.0
29/03:30pm 29.0 28.2 9.7 30 10.9 NNE 4 13 2 7 1019.1 1018.4 0.0
29/03:00pm 29.1 27.8 9.8 30 10.9 ENE 7 17 4 9 1019.4 1018.7 0.0
29/02:30pm 29.2 27.1 9.8 30 11.0 ENE 11 20 6 11 1019.5 1018.8 0.0
29/02:00pm 28.1 26.0 9.9 32 10.3 SSE 11 17 6 9 1019.8 1019.1 0.0
29/01:30pm 28.0 26.0 10.2 33 10.1 E 11 17 6 9 1020.2 1019.5 0.0
29/01:00pm 27.7 25.8 10.4 34 9.8 E 11 17 6 9 1020.6 1019.9 0.0
29/12:30pm 27.4 25.9 10.6 35 9.6 N 9 19 5 10 1021.2 1020.5 0.0
29/12:00pm 27.2 25.8 10.8 36 9.4 NE 9 17 5 9 1022.0 1021.3 0.0
29/11:30am 26.6 25.1 11.9 40 8.5 NNE 11 20 6 11 1022.3 1021.6 0.0
29/11:00am 26.0 23.9 12.5 43 7.9 NNE 15 20 8 11 1022.8 1022.1 0.0
29/10:30am 24.6 22.2 11.5 44 7.5 NNE 15 20 8 11 1023.3 1022.6 0.0
29/10:00am 23.3 20.7 12.0 49 6.5 NNE 17 22 9 12 1023.4 1022.7 0.0
29/09:30am 22.3 19.6 12.8 55 5.5 NNE 19 24 10 13 1023.7 1023.0 0.0
29/09:00am 21.0 18.1 12.2 57 5.0 NE 19 24 10 13 1023.5 1022.8 0.0
29/08:30am 20.1 18.1 12.6 62 4.3 NE 15 20 8 11 1023.3 1022.6 0.0
29/08:00am 18.6 17.5 12.1 66 3.6 NE 9 15 5 8 1023.1 1022.4 0.0
29/07:30am 16.2 15.1 10.7 70 3.0 NE 7 11 4 6 1022.8 1022.1 0.0
29/07:00am 15.5 13.9 10.1 70 2.9 NE 9 13 5 7 1022.5 1021.8 0.0
29/06:30am 15.9 13.9 10.0 68 3.1 ENE 11 15 6 8 1022.2 1021.5 0.0
29/06:00am 15.9 13.4 9.8 67 3.2 ENE 13 17 7 9 1021.8 1021.1 0.0
29/05:30am 16.4 14.1 10.3 67 3.3 ENE 13 19 7 10 1021.4 1020.7 0.0
29/05:00am 14.1 12.4 9.7 75 2.3 E 9 11 5 6 1021.3 1020.6 0.0
29/04:30am 13.0 11.3 8.3 73 2.4 ESE 7 9 4 5 1021.2 1020.5 0.0
29/04:00am 13.5 13.1 8.1 70 2.7 CALM 0 0 0 0 1021.2 1020.5 0.0
29/03:30am 13.8 13.3 8.0 68 2.9 CALM 0 0 0 0 1021.2 1020.5 0.0
29/03:00am 14.6 13.0 8.8 68 3.0 E 7 7 4 4 1021.1 1020.4 0.0
29/02:30am 14.4 12.8 8.1 66 3.2 E 6 7 3 4 1021.1 1020.4 0.0
29/02:00am 14.4 13.3 8.4 67 3.0 ESE 4 7 2 4 1021.1 1020.4 0.0
29/01:30am 14.8 14.4 8.1 64 3.4 CALM 0 0 0 0 1021.3 1020.6 0.0
29/01:00am 15.7 15.4 8.7 63 3.6 CALM 0 0 0 0 1021.3 1020.6 0.0
29/12:30am 16.1 15.7 8.1 59 4.1 CALM 0 0 0 0 1021.9 1021.2 0.0
29/12:00am 17.9 16.4 8.5 54 4.9 NE 6 7 3 4 1021.7 1021.0 0.0
 
Date/Time
EST
Temp
°C
App
Temp
°C
Dew
Point
Rel
Hum
%
Delta-T
°C
Wind Press
QNH
hPa
Press
MSL
hPa
Rain
since 9 am
mm
Dir
 
Spd
km/h
Gust
km/h
Spd
kts
Gust
kts
28/11:30pm 18.6 17.2 8.8 53 5.2 ENE 6 9 3 5 1021.7 1021.0 0.0
28/11:00pm 19.4 17.0 8.7 50 5.6 ENE 11 15 6 8 1021.8 1021.1 0.0
28/10:30pm 20.0 17.3 9.0 49 5.9 ENE 13 17 7 9 1021.8 1021.1 0.0
28/10:00pm 20.3 17.9 8.6 47 6.2 ENE 11 15 6 8 1021.8 1021.1 0.0
28/09:30pm 21.1 18.3 8.7 45 6.6 ENE 13 15 7 8 1021.8 1021.1 0.0
28/09:00pm 21.1 18.9 9.4 47 6.3 ENE 11 13 6 7 1021.5 1020.8 0.0
28/08:30pm 20.7 18.9 9.3 48 6.1 E 9 9 5 5 1021.4 1020.7 0.0
28/08:00pm 20.7 18.8 9.0 47 6.3 ESE 9 11 5 6 1021.0 1020.3 0.0
28/07:30pm 21.4 19.6 9.3 46 6.5 ESE 9 11 5 6 1020.7 1020.0 0.0
28/07:00pm 21.2 19.3 9.1 46 6.5 ESE 9 9 5 5 1020.3 1019.6 0.0
28/06:30pm 22.5 21.0 9.0 42 7.3 SE 7 9 4 5 1020.1 1019.4 0.0
28/06:00pm 24.7 23.2 8.6 36 8.7 E 6 9 3 5 1019.6 1018.9 0.0
28/05:30pm 26.2 24.6 8.7 33 9.6 ESE 7 11 4 6 1019.5 1018.8 0.0
28/05:00pm 27.1 25.2 9.0 32 10.0 E 9 13 5 7 1019.2 1018.5 0.0
28/04:30pm 27.6 24.9 9.0 31 10.3 E 13 19 7 10 1019.2 1018.5 0.0
28/04:00pm 27.9 26.6 9.2 31 10.4 SE 6 11 3 6 1019.2 1018.5 0.0
28/03:30pm 27.7 25.8 9.0 31 10.4 E 9 17 5 9 1019.2 1018.5 0.0
28/03:00pm 27.8 25.9 9.1 31 10.4 SSE 9 13 5 7 1019.1 1018.4 0.0
28/02:30pm 28.0 26.9 9.8 32 10.3 ENE 6 17 3 9 1019.3 1018.6 0.0
28/02:00pm 27.4 25.6 9.3 32 10.1 NE 9 17 5 9 1019.6 1018.9 0.0
28/01:30pm 27.4 25.4 10.2 34 9.8 N 11 20 6 11 1019.9 1019.2 0.0
28/01:00pm 26.7 23.9 10.0 35 9.4 NE 15 24 8 13 1020.4 1019.7 0.0
28/12:30pm 26.9 24.6 10.6 36 9.3 N 13 26 7 14 1020.9 1020.2 0.0
28/12:00pm 26.4 23.7 10.5 37 9.0 NE 15 24 8 13 1021.4 1020.7 0.0
28/11:30am 25.6 22.2 10.6 39 8.5 NE 19 28 10 15 1021.9 1021.2 0.0
28/11:00am 25.4 22.1 11.6 42 7.9 NNE 20 28 11 15 1022.3 1021.6 0.0
28/10:30am 24.7 21.5 12.0 45 7.3 NNE 20 32 11 17 1022.7 1022.0 0.0
28/10:00am 23.1 19.8 11.5 48 6.6 NE 20 28 11 15 1023.2 1022.5 0.0
28/09:30am 22.3 20.1 12.0 52 5.9 NE 15 22 8 12 1023.5 1022.8 0.0
28/09:00am 20.6 18.7 11.8 57 4.9 NE 13 19 7 10 1023.4 1022.7 0.0
28/08:30am 18.6 15.7 10.9 61 4.2 NE 17 22 9 12 1023.1 1022.4 0.0
28/08:00am 16.6 14.8 9.5 63 3.7 E 9 11 5 6 1022.8 1022.1 0.0
28/07:30am 14.3 12.2 8.3 67 3.1 ESE 9 11 5 6 1022.4 1021.7 0.0
28/07:00am 12.9 10.6 7.6 70 2.6 ESE 9 9 5 5 1022.0 1021.3 0.0
28/06:30am 13.0 10.8 7.7 70 2.6 E 9 11 5 6 1021.4 1020.7 0.0
28/06:00am 12.8 11.5 7.5 70 2.6 E 4 9 2 5 1020.9 1020.2 0.0
28/05:30am 13.0 12.4 7.2 68 2.9 CALM 0 0 0 0 1020.6 1019.9 0.0
28/05:00am 13.7 11.8 7.7 67 3.0 E 7 9 4 5 1020.4 1019.7 0.0
28/04:30am 13.5 11.2 7.5 67 3.0 E 9 9 5 5 1020.2 1019.5 0.0
28/04:00am 13.8 11.8 7.1 64 3.3 ESE 7 9 4 5 1020.3 1019.6 0.0
28/03:30am 14.0 12.0 7.3 64 3.3 E 7 9 4 5 1020.3 1019.6 0.0
28/03:00am 14.0 12.2 7.3 64 3.3 SE 6 7 3 4 1020.5 1019.8 0.0
28/02:30am 14.2 12.2 7.3 63 3.4 SE 7 9 4 5 1020.6 1019.9 0.0
28/02:00am 14.5 12.4 6.8 60 3.8 SE 7 7 4 4 1020.6 1019.9 0.0
28/01:30am 15.4 13.5 6.9 57 4.2 SE 6 7 3 4 1020.6 1019.9 0.0
28/01:00am 16.0 14.0 7.0 55 4.5 SE 7 9 4 5 1020.8 1020.1 0.0
28/12:30am 17.0 14.3 7.4 53 4.9 SE 11 13 6 7 1020.7 1020.0 0.0
28/12:00am 17.3 14.7 7.9 54 4.8 SE 11 13 6 7 1020.9 1020.2 0.0
 
Date/Time
EST
Temp
°C
App
Temp
°C
Dew
Point
Rel
Hum
%
Delta-T
°C
Wind Press
QNH
hPa
Press
MSL
hPa
Rain
since 9 am
mm
Dir
 
Spd
km/h
Gust
km/h
Spd
kts
Gust
kts
27/11:30pm 16.5 14.2 7.4 55 4.6 SE 9 11 5 6 1021.1 1020.4 0.0
27/11:00pm 17.5 14.9 7.8 53 5.0 ESE 11 13 6 7 1021.2 1020.5 0.0
27/10:30pm 18.2 15.6 7.9 51 5.3 ESE 11 13 6 7 1021.4 1020.7 0.0
27/10:00pm 18.3 15.8 8.0 51 5.3 SE 11 13 6 7 1021.3 1020.6 0.0
27/09:30pm 19.1 16.9 7.8 48 5.9 ESE 9 9 5 5 1021.3 1020.6 0.0
27/09:00pm 19.8 17.6 7.9 46 6.2 SE 9 11 5 6 1021.2 1020.5 0.0
27/08:30pm 20.0 17.8 8.0 46 6.3 SSE 9 11 5 6 1020.9 1020.2 0.0
27/08:00pm 21.0 19.0 8.6 45 6.6 SSE 9 11 5 6 1020.8 1020.1 0.0
27/07:30pm 21.3 19.4 8.9 45 6.7 SSE 9 11 5 6 1020.2 1019.5 0.0
27/07:00pm 21.0 18.9 8.3 44 6.7 SE 9 11 5 6 1020.1 1019.4 0.0

Other Formats:

Comma delimited format used in spreadsheet applications
http://www.bom.gov.au/fwo/IDQ60801/IDQ60801.95351.axf

JavaScript Object Notation format (JSON) in row-major order
http://www.bom.gov.au/fwo/IDQ60801/IDQ60801.95351.json